sensor_id;sensor_type;location;lat;lon;timestamp;P1;durP1;ratioP1;P2;durP2;ratioP2
56712;SDS011;42589;45.536;9.032;2023-03-14T00:02:40;44.92;;;34.60;;
56712;SDS011;42589;45.536;9.032;2023-03-14T00:05:41;44.97;;;35.28;;
56712;SDS011;42589;45.536;9.032;2023-03-14T00:08:42;43.08;;;34.55;;
56712;SDS011;42589;45.536;9.032;2023-03-14T00:11:44;45.47;;;34.30;;
56712;SDS011;42589;45.536;9.032;2023-03-14T00:14:45;48.53;;;35.28;;
56712;SDS011;42589;45.536;9.032;2023-03-14T00:17:47;47.95;;;36.55;;
56712;SDS011;42589;45.536;9.032;2023-03-14T00:20:48;43.10;;;35.00;;
56712;SDS011;42589;45.536;9.032;2023-03-14T00:23:49;44.47;;;35.22;;
56712;SDS011;42589;45.536;9.032;2023-03-14T00:26:50;48.45;;;35.15;;
56712;SDS011;42589;45.536;9.032;2023-03-14T00:29:51;44.85;;;34.72;;
56712;SDS011;42589;45.536;9.032;2023-03-14T00:32:52;45.78;;;34.17;;
56712;SDS011;42589;45.536;9.032;2023-03-14T00:35:57;42.75;;;34.22;;
56712;SDS011;42589;45.536;9.032;2023-03-14T00:39:03;45.20;;;34.35;;
56712;SDS011;42589;45.536;9.032;2023-03-14T00:42:03;44.88;;;34.67;;
56712;SDS011;42589;45.536;9.032;2023-03-14T00:45:05;45.10;;;34.85;;
56712;SDS011;42589;45.536;9.032;2023-03-14T00:48:08;42.87;;;33.80;;
56712;SDS011;42589;45.536;9.032;2023-03-14T00:51:09;44.03;;;32.83;;
56712;SDS011;42589;45.536;9.032;2023-03-14T00:54:11;42.10;;;33.20;;
56712;SDS011;42589;45.536;9.032;2023-03-14T00:57:11;45.20;;;33.15;;
56712;SDS011;42589;45.536;9.032;2023-03-14T01:00:12;40.28;;;31.05;;
56712;SDS011;42589;45.536;9.032;2023-03-14T01:03:13;39.90;;;30.33;;
56712;SDS011;42589;45.536;9.032;2023-03-14T01:06:16;40.08;;;31.48;;
56712;SDS011;42589;45.536;9.032;2023-03-14T01:09:18;40.70;;;30.80;;
56712;SDS011;42589;45.536;9.032;2023-03-14T01:12:19;43.47;;;32.08;;
56712;SDS011;42589;45.536;9.032;2023-03-14T01:15:20;43.55;;;30.17;;
56712;SDS011;42589;45.536;9.032;2023-03-14T01:18:21;39.80;;;30.40;;
56712;SDS011;42589;45.536;9.032;2023-03-14T01:21:27;42.25;;;30.98;;
56712;SDS011;42589;45.536;9.032;2023-03-14T01:24:29;39.65;;;29.88;;
56712;SDS011;42589;45.536;9.032;2023-03-14T01:27:30;40.92;;;30.92;;
56712;SDS011;42589;45.536;9.032;2023-03-14T01:30:30;37.58;;;28.05;;
56712;SDS011;42589;45.536;9.032;2023-03-14T01:33:31;39.22;;;29.08;;
56712;SDS011;42589;45.536;9.032;2023-03-14T01:36:32;40.67;;;28.08;;
56712;SDS011;42589;45.536;9.032;2023-03-14T01:39:33;35.63;;;26.52;;
56712;SDS011;42589;45.536;9.032;2023-03-14T01:42:34;38.83;;;26.95;;
56712;SDS011;42589;45.536;9.032;2023-03-14T01:49:15;33.92;;;26.10;;
56712;SDS011;42589;45.536;9.032;2023-03-14T01:55:36;33.40;;;25.50;;
56712;SDS011;42589;45.536;9.032;2023-03-14T01:58:37;34.20;;;26.60;;
56712;SDS011;42589;45.536;9.032;2023-03-14T02:01:42;36.42;;;26.42;;
56712;SDS011;42589;45.536;9.032;2023-03-14T02:04:45;32.47;;;26.20;;
56712;SDS011;42589;45.536;9.032;2023-03-14T02:07:53;37.95;;;27.73;;
56712;SDS011;42589;45.536;9.032;2023-03-14T02:10:56;35.40;;;27.13;;
56712;SDS011;42589;45.536;9.032;2023-03-14T02:13:57;36.53;;;27.13;;
56712;SDS011;42589;45.536;9.032;2023-03-14T02:17:00;36.92;;;27.65;;
56712;SDS011;42589;45.536;9.032;2023-03-14T02:23:05;38.55;;;28.38;;
56712;SDS011;42589;45.536;9.032;2023-03-14T02:26:10;36.55;;;27.08;;
56712;SDS011;42589;45.536;9.032;2023-03-14T02:29:16;34.47;;;26.63;;
56712;SDS011;42589;45.536;9.032;2023-03-14T02:32:17;34.65;;;28.45;;
56712;SDS011;42589;45.536;9.032;2023-03-14T02:35:20;35.55;;;27.48;;
56712;SDS011;42589;45.536;9.032;2023-03-14T02:38:31;37.23;;;27.57;;
56712;SDS011;42589;45.536;9.032;2023-03-14T02:41:36;34.38;;;27.08;;
56712;SDS011;42589;45.536;9.032;2023-03-14T02:44:47;35.17;;;27.42;;
56712;SDS011;42589;45.536;9.032;2023-03-14T02:47:53;35.78;;;27.15;;
56712;SDS011;42589;45.536;9.032;2023-03-14T02:50:58;36.90;;;27.70;;
56712;SDS011;42589;45.536;9.032;2023-03-14T02:54:01;39.28;;;29.23;;
56712;SDS011;42589;45.536;9.032;2023-03-14T02:57:02;38.42;;;29.33;;
56712;SDS011;42589;45.536;9.032;2023-03-14T03:00:04;37.53;;;29.20;;
56712;SDS011;42589;45.536;9.032;2023-03-14T03:03:06;41.05;;;29.02;;
56712;SDS011;42589;45.536;9.032;2023-03-14T03:06:07;32.72;;;27.90;;
56712;SDS011;42589;45.536;9.032;2023-03-14T03:09:08;36.55;;;28.40;;
56712;SDS011;42589;45.536;9.032;2023-03-14T03:12:09;34.38;;;28.65;;
56712;SDS011;42589;45.536;9.032;2023-03-14T03:15:10;37.50;;;28.90;;
56712;SDS011;42589;45.536;9.032;2023-03-14T03:18:11;39.90;;;31.08;;
56712;SDS011;42589;45.536;9.032;2023-03-14T03:21:12;43.70;;;33.08;;
56712;SDS011;42589;45.536;9.032;2023-03-14T03:24:13;49.22;;;37.58;;
56712;SDS011;42589;45.536;9.032;2023-03-14T03:27:14;51.92;;;38.00;;
56712;SDS011;42589;45.536;9.032;2023-03-14T03:30:16;46.00;;;35.03;;
56712;SDS011;42589;45.536;9.032;2023-03-14T03:33:17;48.92;;;36.10;;
56712;SDS011;42589;45.536;9.032;2023-03-14T03:36:22;48.42;;;37.20;;
56712;SDS011;42589;45.536;9.032;2023-03-14T03:39:24;49.05;;;34.83;;
56712;SDS011;42589;45.536;9.032;2023-03-14T03:42:26;48.05;;;36.33;;
56712;SDS011;42589;45.536;9.032;2023-03-14T03:45:27;47.38;;;38.42;;
56712;SDS011;42589;45.536;9.032;2023-03-14T03:48:28;48.45;;;38.92;;
56712;SDS011;42589;45.536;9.032;2023-03-14T03:51:29;48.28;;;37.30;;
56712;SDS011;42589;45.536;9.032;2023-03-14T03:54:30;43.10;;;34.10;;
56712;SDS011;42589;45.536;9.032;2023-03-14T03:57:31;46.72;;;34.92;;
56712;SDS011;42589;45.536;9.032;2023-03-14T04:00:32;43.75;;;34.83;;
56712;SDS011;42589;45.536;9.032;2023-03-14T04:03:33;48.53;;;36.28;;
56712;SDS011;42589;45.536;9.032;2023-03-14T04:06:34;48.53;;;37.08;;
56712;SDS011;42589;45.536;9.032;2023-03-14T04:09:36;46.65;;;36.95;;
56712;SDS011;42589;45.536;9.032;2023-03-14T04:12:37;54.60;;;39.00;;
56712;SDS011;42589;45.536;9.032;2023-03-14T04:15:38;53.72;;;40.80;;
56712;SDS011;42589;45.536;9.032;2023-03-14T04:18:39;48.45;;;37.72;;
56712;SDS011;42589;45.536;9.032;2023-03-14T04:21:40;48.25;;;37.42;;
56712;SDS011;42589;45.536;9.032;2023-03-14T04:24:44;48.95;;;38.55;;
56712;SDS011;42589;45.536;9.032;2023-03-14T04:27:46;50.55;;;39.10;;
56712;SDS011;42589;45.536;9.032;2023-03-14T04:30:47;46.67;;;35.88;;
56712;SDS011;42589;45.536;9.032;2023-03-14T04:33:49;49.13;;;36.40;;
56712;SDS011;42589;45.536;9.032;2023-03-14T04:36:50;47.85;;;35.95;;
56712;SDS011;42589;45.536;9.032;2023-03-14T04:39:50;44.20;;;35.53;;
56712;SDS011;42589;45.536;9.032;2023-03-14T04:42:51;45.55;;;34.42;;
56712;SDS011;42589;45.536;9.032;2023-03-14T04:45:53;45.85;;;35.58;;
56712;SDS011;42589;45.536;9.032;2023-03-14T04:48:54;45.88;;;34.92;;
56712;SDS011;42589;45.536;9.032;2023-03-14T04:51:57;43.58;;;34.13;;
56712;SDS011;42589;45.536;9.032;2023-03-14T04:54:58;46.13;;;33.45;;
56712;SDS011;42589;45.536;9.032;2023-03-14T04:57:59;44.55;;;34.22;;
56712;SDS011;42589;45.536;9.032;2023-03-14T05:01:03;40.42;;;33.28;;
56712;SDS011;42589;45.536;9.032;2023-03-14T05:04:05;41.47;;;32.83;;
56712;SDS011;42589;45.536;9.032;2023-03-14T05:07:09;40.95;;;32.10;;
56712;SDS011;42589;45.536;9.032;2023-03-14T05:10:13;42.35;;;31.88;;
56712;SDS011;42589;45.536;9.032;2023-03-14T05:13:14;47.70;;;33.25;;
56712;SDS011;42589;45.536;9.032;2023-03-14T05:16:16;37.63;;;30.13;;
56712;SDS011;42589;45.536;9.032;2023-03-14T05:19:16;42.67;;;31.23;;
56712;SDS011;42589;45.536;9.032;2023-03-14T05:22:17;39.05;;;30.75;;
56712;SDS011;42589;45.536;9.032;2023-03-14T05:25:18;38.88;;;29.83;;
56712;SDS011;42589;45.536;9.032;2023-03-14T05:28:22;38.15;;;29.45;;
56712;SDS011;42589;45.536;9.032;2023-03-14T05:31:22;36.17;;;28.30;;
56712;SDS011;42589;45.536;9.032;2023-03-14T05:34:23;35.70;;;29.08;;
56712;SDS011;42589;45.536;9.032;2023-03-14T05:37:27;37.75;;;28.83;;
56712;SDS011;42589;45.536;9.032;2023-03-14T05:40:28;41.92;;;30.10;;
56712;SDS011;42589;45.536;9.032;2023-03-14T05:43:29;38.63;;;30.00;;
56712;SDS011;42589;45.536;9.032;2023-03-14T05:46:30;44.08;;;31.98;;
56712;SDS011;42589;45.536;9.032;2023-03-14T05:49:30;40.80;;;32.22;;
56712;SDS011;42589;45.536;9.032;2023-03-14T05:52:31;42.83;;;32.25;;
56712;SDS011;42589;45.536;9.032;2023-03-14T05:55:32;43.13;;;33.38;;
56712;SDS011;42589;45.536;9.032;2023-03-14T05:58:33;46.67;;;34.95;;
56712;SDS011;42589;45.536;9.032;2023-03-14T06:01:34;48.22;;;35.42;;
56712;SDS011;42589;45.536;9.032;2023-03-14T06:04:34;50.22;;;38.50;;
56712;SDS011;42589;45.536;9.032;2023-03-14T06:07:36;46.45;;;37.13;;
56712;SDS011;42589;45.536;9.032;2023-03-14T06:10:37;43.63;;;35.33;;
56712;SDS011;42589;45.536;9.032;2023-03-14T06:13:38;44.63;;;33.50;;
56712;SDS011;42589;45.536;9.032;2023-03-14T06:16:39;43.28;;;33.45;;
56712;SDS011;42589;45.536;9.032;2023-03-14T06:19:40;44.85;;;34.67;;
56712;SDS011;42589;45.536;9.032;2023-03-14T06:22:41;40.63;;;32.85;;
56712;SDS011;42589;45.536;9.032;2023-03-14T06:25:42;41.67;;;33.58;;
56712;SDS011;42589;45.536;9.032;2023-03-14T06:28:42;46.10;;;35.95;;
56712;SDS011;42589;45.536;9.032;2023-03-14T06:31:44;43.50;;;35.50;;
56712;SDS011;42589;45.536;9.032;2023-03-14T06:34:44;45.20;;;35.03;;
56712;SDS011;42589;45.536;9.032;2023-03-14T06:37:45;43.65;;;34.13;;
56712;SDS011;42589;45.536;9.032;2023-03-14T06:40:46;43.20;;;33.05;;
56712;SDS011;42589;45.536;9.032;2023-03-14T06:43:47;42.38;;;34.58;;
56712;SDS011;42589;45.536;9.032;2023-03-14T06:46:48;47.88;;;35.80;;
56712;SDS011;42589;45.536;9.032;2023-03-14T06:49:49;47.00;;;36.63;;
56712;SDS011;42589;45.536;9.032;2023-03-14T06:52:50;47.42;;;36.75;;
56712;SDS011;42589;45.536;9.032;2023-03-14T06:55:51;51.53;;;36.72;;
56712;SDS011;42589;45.536;9.032;2023-03-14T06:58:52;43.42;;;35.05;;
56712;SDS011;42589;45.536;9.032;2023-03-14T07:01:53;42.75;;;34.33;;
56712;SDS011;42589;45.536;9.032;2023-03-14T07:04:54;41.58;;;33.20;;
56712;SDS011;42589;45.536;9.032;2023-03-14T07:07:56;46.05;;;34.63;;
56712;SDS011;42589;45.536;9.032;2023-03-14T07:10:56;43.47;;;32.22;;
56712;SDS011;42589;45.536;9.032;2023-03-14T07:13:58;41.42;;;33.60;;
56712;SDS011;42589;45.536;9.032;2023-03-14T07:16:59;41.55;;;32.17;;
56712;SDS011;42589;45.536;9.032;2023-03-14T07:20:00;43.65;;;32.28;;
56712;SDS011;42589;45.536;9.032;2023-03-14T07:23:01;40.10;;;31.95;;
56712;SDS011;42589;45.536;9.032;2023-03-14T07:26:03;40.00;;;32.05;;
56712;SDS011;42589;45.536;9.032;2023-03-14T07:29:04;39.97;;;32.67;;
56712;SDS011;42589;45.536;9.032;2023-03-14T07:32:05;38.10;;;31.63;;
56712;SDS011;42589;45.536;9.032;2023-03-14T07:35:08;43.70;;;31.77;;
56712;SDS011;42589;45.536;9.032;2023-03-14T07:38:09;38.88;;;30.95;;
56712;SDS011;42589;45.536;9.032;2023-03-14T07:41:09;40.72;;;30.73;;
56712;SDS011;42589;45.536;9.032;2023-03-14T07:44:10;42.70;;;32.95;;
56712;SDS011;42589;45.536;9.032;2023-03-14T07:47:11;39.30;;;32.20;;
56712;SDS011;42589;45.536;9.032;2023-03-14T07:50:12;41.50;;;33.30;;
56712;SDS011;42589;45.536;9.032;2023-03-14T07:53:13;42.28;;;33.55;;
56712;SDS011;42589;45.536;9.032;2023-03-14T07:56:14;37.45;;;32.28;;
56712;SDS011;42589;45.536;9.032;2023-03-14T07:59:15;38.78;;;31.75;;
56712;SDS011;42589;45.536;9.032;2023-03-14T08:02:15;42.08;;;32.78;;
56712;SDS011;42589;45.536;9.032;2023-03-14T08:05:16;43.13;;;33.88;;
56712;SDS011;42589;45.536;9.032;2023-03-14T08:08:17;40.75;;;32.92;;
56712;SDS011;42589;45.536;9.032;2023-03-14T08:11:18;42.33;;;32.35;;
56712;SDS011;42589;45.536;9.032;2023-03-14T08:14:19;43.20;;;35.38;;
56712;SDS011;42589;45.536;9.032;2023-03-14T08:17:20;43.47;;;34.00;;
56712;SDS011;42589;45.536;9.032;2023-03-14T08:20:22;44.35;;;34.20;;
56712;SDS011;42589;45.536;9.032;2023-03-14T08:23:24;45.47;;;34.95;;
56712;SDS011;42589;45.536;9.032;2023-03-14T08:26:25;43.70;;;34.35;;
56712;SDS011;42589;45.536;9.032;2023-03-14T08:29:26;43.42;;;33.58;;
56712;SDS011;42589;45.536;9.032;2023-03-14T08:32:27;44.80;;;34.15;;
56712;SDS011;42589;45.536;9.032;2023-03-14T08:35:29;42.70;;;33.92;;
56712;SDS011;42589;45.536;9.032;2023-03-14T08:38:29;44.28;;;32.70;;
56712;SDS011;42589;45.536;9.032;2023-03-14T08:41:30;40.08;;;30.70;;
56712;SDS011;42589;45.536;9.032;2023-03-14T08:44:31;38.05;;;30.88;;
56712;SDS011;42589;45.536;9.032;2023-03-14T08:47:32;38.83;;;30.65;;
56712;SDS011;42589;45.536;9.032;2023-03-14T08:50:33;39.28;;;29.98;;
56712;SDS011;42589;45.536;9.032;2023-03-14T08:53:34;35.83;;;29.50;;
56712;SDS011;42589;45.536;9.032;2023-03-14T08:56:35;39.63;;;30.98;;
56712;SDS011;42589;45.536;9.032;2023-03-14T08:59:38;32.47;;;26.73;;
56712;SDS011;42589;45.536;9.032;2023-03-14T09:02:39;34.47;;;27.27;;
56712;SDS011;42589;45.536;9.032;2023-03-14T09:05:40;34.60;;;27.63;;
56712;SDS011;42589;45.536;9.032;2023-03-14T09:08:41;35.75;;;28.20;;
56712;SDS011;42589;45.536;9.032;2023-03-14T09:11:42;33.53;;;26.83;;
56712;SDS011;42589;45.536;9.032;2023-03-14T09:14:43;31.55;;;26.25;;
56712;SDS011;42589;45.536;9.032;2023-03-14T09:17:45;28.35;;;22.67;;
56712;SDS011;42589;45.536;9.032;2023-03-14T09:20:46;28.20;;;23.50;;
56712;SDS011;42589;45.536;9.032;2023-03-14T09:23:46;26.20;;;22.48;;
56712;SDS011;42589;45.536;9.032;2023-03-14T09:26:47;31.10;;;23.75;;
56712;SDS011;42589;45.536;9.032;2023-03-14T09:29:49;34.47;;;25.67;;
56712;SDS011;42589;45.536;9.032;2023-03-14T09:32:50;32.95;;;26.10;;
56712;SDS011;42589;45.536;9.032;2023-03-14T09:35:51;35.38;;;27.30;;
56712;SDS011;42589;45.536;9.032;2023-03-14T09:38:52;38.33;;;30.13;;
56712;SDS011;42589;45.536;9.032;2023-03-14T09:41:53;36.85;;;28.83;;
56712;SDS011;42589;45.536;9.032;2023-03-14T09:45:02;32.25;;;26.10;;
56712;SDS011;42589;45.536;9.032;2023-03-14T09:48:12;33.35;;;26.15;;
56712;SDS011;42589;45.536;9.032;2023-03-14T09:51:20;33.17;;;27.17;;
56712;SDS011;42589;45.536;9.032;2023-03-14T09:54:34;34.78;;;28.00;;
56712;SDS011;42589;45.536;9.032;2023-03-14T09:57:37;33.42;;;27.52;;
56712;SDS011;42589;45.536;9.032;2023-03-14T10:00:40;37.88;;;28.13;;
56712;SDS011;42589;45.536;9.032;2023-03-14T10:03:45;38.35;;;27.38;;
56712;SDS011;42589;45.536;9.032;2023-03-14T10:06:46;36.78;;;28.58;;
56712;SDS011;42589;45.536;9.032;2023-03-14T10:09:51;33.67;;;26.85;;
56712;SDS011;42589;45.536;9.032;2023-03-14T10:12:59;31.63;;;23.80;;
56712;SDS011;42589;45.536;9.032;2023-03-14T10:16:08;30.67;;;23.83;;
56712;SDS011;42589;45.536;9.032;2023-03-14T10:19:11;32.30;;;23.48;;
56712;SDS011;42589;45.536;9.032;2023-03-14T10:22:17;33.08;;;24.75;;
56712;SDS011;42589;45.536;9.032;2023-03-14T10:25:26;30.33;;;23.38;;
56712;SDS011;42589;45.536;9.032;2023-03-14T10:28:30;33.20;;;22.83;;
56712;SDS011;42589;45.536;9.032;2023-03-14T10:38:16;26.30;;;19.08;;
56712;SDS011;42589;45.536;9.032;2023-03-14T10:41:25;26.40;;;19.65;;
56712;SDS011;42589;45.536;9.032;2023-03-14T10:44:28;25.88;;;18.60;;
56712;SDS011;42589;45.536;9.032;2023-03-14T10:47:31;24.88;;;18.70;;
56712;SDS011;42589;45.536;9.032;2023-03-14T10:50:33;25.00;;;18.70;;
56712;SDS011;42589;45.536;9.032;2023-03-14T10:53:41;21.48;;;15.60;;
56712;SDS011;42589;45.536;9.032;2023-03-14T10:56:55;21.42;;;16.10;;
56712;SDS011;42589;45.536;9.032;2023-03-14T11:00:00;20.00;;;15.17;;
56712;SDS011;42589;45.536;9.032;2023-03-14T11:03:08;19.30;;;15.30;;
56712;SDS011;42589;45.536;9.032;2023-03-14T11:27:07;17.85;;;15.50;;
56712;SDS011;42589;45.536;9.032;2023-03-14T11:30:34;19.75;;;15.93;;
56712;SDS011;42589;45.536;9.032;2023-03-14T11:33:52;14.40;;;12.65;;
56712;SDS011;42589;45.536;9.032;2023-03-14T11:37:04;15.68;;;12.98;;
56712;SDS011;42589;45.536;9.032;2023-03-14T11:43:28;14.90;;;12.10;;
56712;SDS011;42589;45.536;9.032;2023-03-14T11:46:39;18.08;;;13.48;;
56712;SDS011;42589;45.536;9.032;2023-03-14T11:50:03;16.77;;;14.18;;
56712;SDS011;42589;45.536;9.032;2023-03-14T11:56:53;15.98;;;13.35;;
56712;SDS011;42589;45.536;9.032;2023-03-14T12:11:09;14.27;;;12.57;;
56712;SDS011;42589;45.536;9.032;2023-03-14T12:14:17;16.60;;;14.32;;
56712;SDS011;42589;45.536;9.032;2023-03-14T12:20:39;15.63;;;12.68;;
56712;SDS011;42589;45.536;9.032;2023-03-14T12:23:44;14.77;;;12.85;;
56712;SDS011;42589;45.536;9.032;2023-03-14T12:26:57;16.98;;;13.73;;
56712;SDS011;42589;45.536;9.032;2023-03-14T12:30:00;16.77;;;13.30;;
56712;SDS011;42589;45.536;9.032;2023-03-14T12:33:11;15.63;;;11.88;;
56712;SDS011;42589;45.536;9.032;2023-03-14T12:36:18;16.83;;;12.70;;
56712;SDS011;42589;45.536;9.032;2023-03-14T12:43:26;14.48;;;11.75;;
56712;SDS011;42589;45.536;9.032;2023-03-14T12:46:28;15.20;;;11.75;;
56712;SDS011;42589;45.536;9.032;2023-03-14T12:49:30;15.98;;;12.45;;
56712;SDS011;42589;45.536;9.032;2023-03-14T12:52:36;16.27;;;12.73;;
56712;SDS011;42589;45.536;9.032;2023-03-14T12:55:49;14.65;;;11.93;;
56712;SDS011;42589;45.536;9.032;2023-03-14T13:05:20;13.60;;;12.07;;
56712;SDS011;42589;45.536;9.032;2023-03-14T13:08:38;16.25;;;12.73;;
56712;SDS011;42589;45.536;9.032;2023-03-14T13:11:43;15.43;;;12.70;;
56712;SDS011;42589;45.536;9.032;2023-03-14T13:14:45;13.65;;;12.30;;
56712;SDS011;42589;45.536;9.032;2023-03-14T13:20:53;14.10;;;12.60;;
56712;SDS011;42589;45.536;9.032;2023-03-14T13:27:04;15.43;;;12.65;;
56712;SDS011;42589;45.536;9.032;2023-03-14T13:30:26;16.40;;;13.23;;
56712;SDS011;42589;45.536;9.032;2023-03-14T13:33:27;17.77;;;13.55;;
56712;SDS011;42589;45.536;9.032;2023-03-14T13:36:28;18.13;;;12.90;;
56712;SDS011;42589;45.536;9.032;2023-03-14T13:39:29;15.52;;;12.80;;
56712;SDS011;42589;45.536;9.032;2023-03-14T13:42:29;15.70;;;12.60;;
56712;SDS011;42589;45.536;9.032;2023-03-14T13:45:30;16.45;;;13.50;;
56712;SDS011;42589;45.536;9.032;2023-03-14T13:48:32;15.52;;;12.98;;
56712;SDS011;42589;45.536;9.032;2023-03-14T13:51:38;14.57;;;12.40;;
56712;SDS011;42589;45.536;9.032;2023-03-14T13:54:40;15.40;;;13.23;;
56712;SDS011;42589;45.536;9.032;2023-03-14T13:57:49;16.65;;;13.85;;
56712;SDS011;42589;45.536;9.032;2023-03-14T14:00:55;15.40;;;13.10;;
56712;SDS011;42589;45.536;9.032;2023-03-14T14:04:18;14.80;;;12.80;;
56712;SDS011;42589;45.536;9.032;2023-03-14T14:07:21;13.90;;;12.40;;
56712;SDS011;42589;45.536;9.032;2023-03-14T14:10:22;14.38;;;12.60;;
56712;SDS011;42589;45.536;9.032;2023-03-14T14:13:26;14.65;;;11.95;;
56712;SDS011;42589;45.536;9.032;2023-03-14T14:16:31;14.02;;;12.52;;
56712;SDS011;42589;45.536;9.032;2023-03-14T14:19:33;17.98;;;15.15;;
56712;SDS011;42589;45.536;9.032;2023-03-14T14:22:35;19.90;;;16.42;;
56712;SDS011;42589;45.536;9.032;2023-03-14T14:25:37;18.17;;;15.30;;
56712;SDS011;42589;45.536;9.032;2023-03-14T14:28:38;19.65;;;15.32;;
56712;SDS011;42589;45.536;9.032;2023-03-14T14:31:40;20.42;;;17.75;;
56712;SDS011;42589;45.536;9.032;2023-03-14T14:34:45;19.38;;;16.42;;
56712;SDS011;42589;45.536;9.032;2023-03-14T14:37:59;22.27;;;17.70;;
56712;SDS011;42589;45.536;9.032;2023-03-14T14:41:01;20.20;;;16.90;;
56712;SDS011;42589;45.536;9.032;2023-03-14T14:44:03;17.73;;;15.82;;
56712;SDS011;42589;45.536;9.032;2023-03-14T14:47:04;19.85;;;15.82;;
56712;SDS011;42589;45.536;9.032;2023-03-14T14:50:20;22.02;;;17.58;;
56712;SDS011;42589;45.536;9.032;2023-03-14T14:53:34;21.67;;;18.05;;
56712;SDS011;42589;45.536;9.032;2023-03-14T14:56:43;22.00;;;18.38;;
56712;SDS011;42589;45.536;9.032;2023-03-14T14:59:48;22.60;;;18.63;;
56712;SDS011;42589;45.536;9.032;2023-03-14T15:02:51;21.58;;;18.58;;
56712;SDS011;42589;45.536;9.032;2023-03-14T15:05:55;23.60;;;20.08;;
56712;SDS011;42589;45.536;9.032;2023-03-14T15:08:55;23.67;;;20.38;;
56712;SDS011;42589;45.536;9.032;2023-03-14T15:11:56;23.95;;;21.40;;
56712;SDS011;42589;45.536;9.032;2023-03-14T15:14:57;26.08;;;23.15;;
56712;SDS011;42589;45.536;9.032;2023-03-14T15:17:57;27.27;;;23.58;;
56712;SDS011;42589;45.536;9.032;2023-03-14T15:20:58;26.20;;;23.40;;
56712;SDS011;42589;45.536;9.032;2023-03-14T15:24:00;27.58;;;23.65;;
56712;SDS011;42589;45.536;9.032;2023-03-14T15:27:02;27.25;;;23.65;;
56712;SDS011;42589;45.536;9.032;2023-03-14T15:30:03;26.73;;;23.92;;
56712;SDS011;42589;45.536;9.032;2023-03-14T15:33:08;27.15;;;23.77;;
56712;SDS011;42589;45.536;9.032;2023-03-14T15:36:23;26.88;;;23.27;;
56712;SDS011;42589;45.536;9.032;2023-03-14T15:39:25;32.83;;;21.75;;
56712;SDS011;42589;45.536;9.032;2023-03-14T15:42:26;18.05;;;15.55;;
56712;SDS011;42589;45.536;9.032;2023-03-14T15:45:27;17.10;;;14.90;;
56712;SDS011;42589;45.536;9.032;2023-03-14T15:48:28;22.08;;;18.30;;
56712;SDS011;42589;45.536;9.032;2023-03-14T15:51:29;27.60;;;21.17;;
56712;SDS011;42589;45.536;9.032;2023-03-14T15:54:30;26.88;;;22.58;;
56712;SDS011;42589;45.536;9.032;2023-03-14T15:57:31;28.63;;;22.98;;
56712;SDS011;42589;45.536;9.032;2023-03-14T16:00:32;26.05;;;22.92;;
56712;SDS011;42589;45.536;9.032;2023-03-14T16:03:34;27.98;;;23.95;;
56712;SDS011;42589;45.536;9.032;2023-03-14T16:06:36;26.95;;;22.67;;
56712;SDS011;42589;45.536;9.032;2023-03-14T16:09:36;26.35;;;22.00;;
56712;SDS011;42589;45.536;9.032;2023-03-14T16:12:38;25.98;;;22.15;;
56712;SDS011;42589;45.536;9.032;2023-03-14T16:15:39;24.30;;;21.65;;
56712;SDS011;42589;45.536;9.032;2023-03-14T16:18:39;24.73;;;21.00;;
56712;SDS011;42589;45.536;9.032;2023-03-14T16:21:41;23.52;;;17.23;;
56712;SDS011;42589;45.536;9.032;2023-03-14T16:24:42;21.58;;;16.70;;
56712;SDS011;42589;45.536;9.032;2023-03-14T16:27:44;19.73;;;17.05;;
56712;SDS011;42589;45.536;9.032;2023-03-14T16:30:45;22.55;;;18.27;;
56712;SDS011;42589;45.536;9.032;2023-03-14T16:33:46;22.85;;;18.65;;
56712;SDS011;42589;45.536;9.032;2023-03-14T16:36:50;25.08;;;18.83;;
56712;SDS011;42589;45.536;9.032;2023-03-14T16:39:51;23.38;;;18.83;;
56712;SDS011;42589;45.536;9.032;2023-03-14T16:42:52;25.27;;;18.80;;
56712;SDS011;42589;45.536;9.032;2023-03-14T16:45:52;24.98;;;19.13;;
56712;SDS011;42589;45.536;9.032;2023-03-14T16:48:54;23.70;;;19.30;;
56712;SDS011;42589;45.536;9.032;2023-03-14T16:51:56;26.25;;;20.23;;
56712;SDS011;42589;45.536;9.032;2023-03-14T16:54:57;25.17;;;18.63;;
56712;SDS011;42589;45.536;9.032;2023-03-14T16:57:58;23.25;;;18.75;;
56712;SDS011;42589;45.536;9.032;2023-03-14T17:00:59;20.73;;;17.50;;
56712;SDS011;42589;45.536;9.032;2023-03-14T17:04:09;23.23;;;18.88;;
56712;SDS011;42589;45.536;9.032;2023-03-14T17:07:10;23.55;;;18.13;;
56712;SDS011;42589;45.536;9.032;2023-03-14T17:10:11;23.80;;;18.17;;
56712;SDS011;42589;45.536;9.032;2023-03-14T17:13:12;21.65;;;18.13;;
56712;SDS011;42589;45.536;9.032;2023-03-14T17:16:13;22.77;;;18.10;;
56712;SDS011;42589;45.536;9.032;2023-03-14T17:19:13;23.65;;;17.67;;
56712;SDS011;42589;45.536;9.032;2023-03-14T17:22:14;21.85;;;17.35;;
56712;SDS011;42589;45.536;9.032;2023-03-14T17:25:15;19.90;;;16.00;;
56712;SDS011;42589;45.536;9.032;2023-03-14T17:28:20;22.90;;;17.25;;
56712;SDS011;42589;45.536;9.032;2023-03-14T17:34:24;18.60;;;15.20;;
56712;SDS011;42589;45.536;9.032;2023-03-14T17:37:28;19.15;;;16.08;;
56712;SDS011;42589;45.536;9.032;2023-03-14T17:40:29;17.15;;;14.73;;
56712;SDS011;42589;45.536;9.032;2023-03-14T17:43:30;18.27;;;15.38;;
56712;SDS011;42589;45.536;9.032;2023-03-14T17:46:32;18.17;;;15.13;;
56712;SDS011;42589;45.536;9.032;2023-03-14T17:49:33;18.38;;;15.32;;
56712;SDS011;42589;45.536;9.032;2023-03-14T17:52:34;19.00;;;15.50;;
56712;SDS011;42589;45.536;9.032;2023-03-14T17:55:35;17.77;;;15.52;;
56712;SDS011;42589;45.536;9.032;2023-03-14T17:58:36;18.23;;;14.43;;
56712;SDS011;42589;45.536;9.032;2023-03-14T18:01:37;18.15;;;14.13;;
56712;SDS011;42589;45.536;9.032;2023-03-14T18:04:39;14.32;;;12.57;;
56712;SDS011;42589;45.536;9.032;2023-03-14T18:07:41;14.73;;;13.07;;
56712;SDS011;42589;45.536;9.032;2023-03-14T18:10:41;15.05;;;12.52;;
56712;SDS011;42589;45.536;9.032;2023-03-14T18:13:42;14.70;;;11.90;;
56712;SDS011;42589;45.536;9.032;2023-03-14T18:16:44;14.40;;;11.88;;
56712;SDS011;42589;45.536;9.032;2023-03-14T18:19:47;14.25;;;11.82;;
56712;SDS011;42589;45.536;9.032;2023-03-14T18:22:49;13.10;;;11.48;;
56712;SDS011;42589;45.536;9.032;2023-03-14T18:25:50;13.13;;;11.05;;
56712;SDS011;42589;45.536;9.032;2023-03-14T18:28:51;12.05;;;10.85;;
56712;SDS011;42589;45.536;9.032;2023-03-14T18:31:53;11.45;;;10.07;;
56712;SDS011;42589;45.536;9.032;2023-03-14T18:34:55;12.32;;;11.00;;
56712;SDS011;42589;45.536;9.032;2023-03-14T18:37:57;14.90;;;10.88;;
56712;SDS011;42589;45.536;9.032;2023-03-14T18:41:05;12.43;;;10.15;;
56712;SDS011;42589;45.536;9.032;2023-03-14T18:44:09;13.25;;;10.32;;
56712;SDS011;42589;45.536;9.032;2023-03-14T18:47:10;15.15;;;11.05;;
56712;SDS011;42589;45.536;9.032;2023-03-14T18:50:11;12.40;;;11.10;;
56712;SDS011;42589;45.536;9.032;2023-03-14T18:53:13;12.52;;;11.20;;
56712;SDS011;42589;45.536;9.032;2023-03-14T18:56:15;11.45;;;10.25;;
56712;SDS011;42589;45.536;9.032;2023-03-14T18:59:17;11.32;;;10.15;;
56712;SDS011;42589;45.536;9.032;2023-03-14T19:02:17;12.40;;;9.32;;
56712;SDS011;42589;45.536;9.032;2023-03-14T19:05:19;12.07;;;9.55;;
56712;SDS011;42589;45.536;9.032;2023-03-14T19:08:21;11.10;;;9.35;;